Vinson, Oklahoma
Current Conditions -  °F | °C
As of 3:35 PM on Friday 19 Dec 2014 (Local Time) from KAXS Reporting Station
Overcast Overcast  
Wind Chill: 43°   Ceiling: 1900
Heat Index: 46°   Visibility: 10mi
Dew Point: 37°   Wind: 6mph
Humidity: 73%   Direction: 40°NE
Pressure: 30.19"   Gusts: NA
Location:  34.9°N, 99.86°W
Report Text: KAXS 192135Z AUTO 04005KT 10SM OVC019 08/03 A3019 RMK AO2 T00760030
Loading
Personal Weather Stations






























Interactive Weather Map New forecast layout! Learn more

10-Day Weather Forecast

Advertisements
Track Severe Weather on mobile